createdAt,value
2018-09-12T00:01:52.278Z,59.35
2018-09-12T00:02:52.289Z,58.94
2018-09-12T00:04:45.208Z,58.68
2018-09-12T00:05:45.233Z,58.55
2018-09-12T00:07:38.167Z,59.42
2018-09-12T00:08:38.181Z,59.32
2018-09-12T00:10:32.086Z,58.94
2018-09-12T00:11:32.119Z,60.13
2018-09-12T00:13:25.044Z,60.10
2018-09-12T00:14:25.061Z,59.80
2018-09-12T00:16:17.987Z,59.80
2018-09-12T00:17:18.002Z,59.90
2018-09-12T00:19:10.918Z,60.10
2018-09-12T00:20:10.942Z,59.71
2018-09-12T00:22:03.871Z,59.71
2018-09-12T00:23:03.880Z,60.00
2018-09-12T00:24:56.837Z,60.48
2018-09-12T00:25:56.860Z,60.19
2018-09-12T00:27:49.747Z,60.19
2018-09-12T00:28:49.761Z,60.38
2018-09-12T00:30:43.669Z,60.19
2018-09-12T00:31:43.694Z,60.00
2018-09-12T00:33:36.616Z,60.68
2018-09-12T00:34:36.635Z,60.77
2018-09-12T00:36:29.556Z,60.68
2018-09-12T00:37:29.570Z,60.48
2018-09-12T00:39:22.505Z,60.58
2018-09-12T00:40:22.526Z,60.38
2018-09-12T00:42:15.450Z,60.68
2018-09-12T00:43:15.466Z,61.06
2018-09-12T00:45:08.380Z,60.38
2018-09-12T00:46:08.404Z,60.68
2018-09-12T00:48:01.324Z,60.48
2018-09-12T00:49:01.341Z,60.19
2018-09-12T00:50:54.266Z,60.19
2018-09-12T00:51:54.323Z,60.28
2018-09-12T00:53:47.217Z,60.31
2018-09-12T00:54:47.239Z,60.58
2018-09-12T00:56:40.141Z,60.80
2018-09-12T00:57:40.168Z,60.13
2018-09-12T00:59:33.095Z,60.80
2018-09-12T01:00:33.110Z,60.80
2018-09-12T01:02:26.036Z,60.71
2018-09-12T01:03:26.046Z,60.22
2018-09-12T01:05:18.959Z,60.19
2018-09-12T01:06:18.984Z,60.41
2018-09-12T01:08:11.911Z,60.58
2018-09-12T01:09:11.926Z,60.58
2018-09-12T01:11:04.842Z,60.38
2018-09-12T01:12:04.864Z,60.38
2018-09-12T01:13:57.791Z,60.77
2018-09-12T01:14:57.807Z,60.28
2018-09-12T01:16:50.723Z,61.06
2018-09-12T01:17:50.744Z,61.06
2018-09-12T01:19:43.672Z,60.96
2018-09-12T01:20:43.689Z,61.16
2018-09-12T01:22:36.614Z,61.44
2018-09-12T01:23:36.629Z,61.54
2018-09-12T01:25:29.542Z,62.12
2018-09-12T01:26:29.572Z,62.22
2018-09-12T01:28:22.493Z,62.31
2018-09-12T01:29:22.504Z,62.22
2018-09-12T01:31:15.422Z,62.41
2018-09-12T01:32:15.447Z,62.41
2018-09-12T01:34:08.366Z,62.22
2018-09-12T01:35:08.384Z,62.41
2018-09-12T01:37:01.788Z,62.22
2018-09-12T01:38:01.814Z,62.41
2018-09-12T01:39:54.788Z,62.51
2018-09-12T01:40:54.779Z,63.18
2018-09-12T01:42:47.675Z,63.57
2018-09-12T01:43:47.706Z,63.37
2018-09-12T01:45:40.627Z,63.67
2018-09-12T01:46:40.642Z,63.67
2018-09-12T01:48:33.566Z,63.76
2018-09-12T01:49:33.583Z,64.05
2018-09-12T01:51:26.499Z,63.57
2018-09-12T01:52:26.524Z,63.95
2018-09-12T01:54:19.578Z,63.95
2018-09-12T01:55:19.483Z,63.76
2018-09-12T01:57:12.374Z,63.37
2018-09-12T01:58:12.401Z,63.67
2018-09-12T02:00:05.320Z,63.67
2018-09-12T02:01:05.338Z,63.37
2018-09-12T02:02:58.253Z,63.09
2018-09-12T02:03:58.279Z,63.18
2018-09-12T02:05:51.199Z,63.09
2018-09-12T02:06:51.216Z,63.28
2018-09-12T02:08:44.173Z,63.57
2018-09-12T02:09:44.203Z,62.99
2018-09-12T02:11:37.079Z,62.60
2018-09-12T02:12:37.095Z,62.60
2018-09-12T02:14:30.016Z,63.47
2018-09-12T02:15:30.035Z,62.99
2018-09-12T02:17:22.944Z,63.37
2018-09-12T02:18:22.971Z,63.37
2018-09-12T02:20:15.896Z,63.57
2018-09-12T02:21:15.912Z,64.05
2018-09-12T02:23:08.888Z,63.76
2018-09-12T02:24:08.844Z,63.85
2018-09-12T02:26:01.779Z,64.02
2018-09-12T02:27:01.793Z,64.24
2018-09-12T02:28:54.707Z,64.21
2018-09-12T02:29:54.732Z,64.34
2018-09-12T02:31:47.662Z,64.31
2018-09-12T02:32:47.667Z,64.31
2018-09-12T02:34:40.596Z,64.11
2018-09-12T02:35:40.611Z,64.02
2018-09-12T02:37:33.534Z,64.21
2018-09-12T02:38:33.549Z,63.92
2018-09-12T02:40:26.670Z,64.31
2018-09-12T02:41:26.686Z,64.89
2018-09-12T02:43:19.601Z,64.40
2018-09-12T02:44:19.627Z,64.40
2018-09-12T02:46:12.557Z,64.59
2018-09-12T02:47:12.570Z,64.47
2018-09-12T02:49:05.491Z,65.63
2018-09-12T02:50:05.509Z,65.05
2018-09-12T02:51:58.434Z,65.14
2018-09-12T02:52:58.459Z,65.14
2018-09-12T02:54:51.364Z,65.63
2018-09-12T02:55:51.390Z,65.63
2018-09-12T02:57:44.319Z,66.11
2018-09-12T02:58:44.330Z,66.01
2018-09-12T03:00:37.254Z,65.72
2018-09-12T03:01:37.269Z,66.01
2018-09-12T03:03:30.194Z,66.97
2018-09-12T03:04:30.208Z,66.97
2018-09-12T03:06:23.134Z,66.82
2018-09-12T03:07:23.144Z,66.88
2018-09-12T03:09:16.059Z,66.82
2018-09-12T03:10:16.085Z,66.62
2018-09-12T03:12:09.008Z,66.39
2018-09-12T03:13:09.024Z,66.82
2018-09-12T03:15:01.943Z,66.82
2018-09-12T03:16:01.960Z,67.00
2018-09-12T03:17:54.880Z,66.82
2018-09-12T03:18:54.898Z,67.00
2018-09-12T03:20:47.914Z,66.33
2018-09-12T03:21:47.841Z,66.04
2018-09-12T03:23:40.755Z,66.14
2018-09-12T03:24:40.770Z,65.75
2018-09-12T03:26:33.696Z,65.95
2018-09-12T03:27:33.712Z,66.14
2018-09-12T03:29:26.626Z,66.33
2018-09-12T03:30:26.650Z,65.85
2018-09-12T03:32:19.581Z,66.62
2018-09-12T03:33:19.589Z,66.82
2018-09-12T03:35:12.522Z,66.62
2018-09-12T03:36:12.525Z,66.62
2018-09-12T03:38:05.459Z,66.43
2018-09-12T03:39:05.468Z,66.62
2018-09-12T03:40:58.383Z,66.62
2018-09-12T03:41:58.410Z,66.62
2018-09-12T03:43:51.332Z,66.43
2018-09-12T03:44:51.350Z,66.72
2018-09-12T03:46:44.275Z,67.20
2018-09-12T03:47:44.288Z,67.30
2018-09-12T03:49:37.211Z,67.30
2018-09-12T03:50:37.237Z,67.30
2018-09-12T03:52:30.193Z,67.30
2018-09-12T03:53:30.203Z,67.00
2018-09-12T03:55:23.117Z,66.82
2018-09-12T03:56:23.140Z,67.10
2018-09-12T03:58:16.086Z,67.00
2018-09-12T03:59:16.091Z,67.40
2018-09-12T04:01:09.008Z,67.97
2018-09-12T04:02:09.031Z,67.20
2018-09-12T04:04:01.955Z,67.40
2018-09-12T04:05:01.972Z,67.30
2018-09-12T04:06:54.904Z,67.58
2018-09-12T04:07:54.912Z,67.78
2018-09-12T04:09:47.827Z,67.36
2018-09-12T04:10:47.851Z,67.65
2018-09-12T04:12:40.773Z,68.13
2018-09-12T04:13:40.787Z,67.74
2018-09-12T04:15:34.144Z,68.13
2018-09-12T04:16:34.063Z,68.23
2018-09-12T04:18:26.985Z,67.94
2018-09-12T04:19:27.000Z,68.32
2018-09-12T04:21:19.917Z,68.90
2018-09-12T04:22:19.936Z,68.90
2018-09-12T04:24:12.881Z,68.77
2018-09-12T04:25:12.884Z,68.52
2018-09-12T04:27:05.795Z,68.58
2018-09-12T04:28:05.819Z,68.96
2018-09-12T04:29:58.737Z,69.15
2018-09-12T04:30:58.754Z,69.64
2018-09-12T04:32:51.665Z,69.25
2018-09-12T04:33:51.689Z,69.35
2018-09-12T04:35:44.612Z,69.45
2018-09-12T04:36:44.638Z,69.83
2018-09-12T04:38:37.550Z,70.02
2018-09-12T04:39:37.564Z,69.93
2018-09-12T04:41:30.480Z,70.21
2018-09-12T04:42:30.502Z,70.21
2018-09-12T04:44:23.437Z,69.83
2018-09-12T04:45:23.440Z,70.31
2018-09-12T04:47:16.351Z,70.37
2018-09-12T04:48:16.392Z,71.18
2018-09-12T04:50:09.294Z,70.66
2018-09-12T04:51:09.307Z,71.04
2018-09-12T04:53:02.221Z,71.34
2018-09-12T04:54:02.242Z,71.34
2018-09-12T04:55:55.166Z,71.53
2018-09-12T04:56:55.181Z,71.43
2018-09-12T04:58:48.111Z,71.14
2018-09-12T04:59:48.205Z,71.56
2018-09-12T05:01:41.033Z,71.18
2018-09-12T05:02:41.051Z,71.18
2018-09-12T05:04:33.975Z,71.28
2018-09-12T05:05:33.988Z,70.70
2018-09-12T05:07:26.900Z,71.37
2018-09-12T05:08:26.929Z,71.28
2018-09-12T05:10:19.960Z,70.89
2018-09-12T05:11:19.863Z,71.08
2018-09-12T05:13:12.775Z,70.89
2018-09-12T05:14:12.801Z,70.98
2018-09-12T05:16:05.779Z,71.28
2018-09-12T05:17:05.737Z,71.14
2018-09-12T05:18:58.659Z,71.81
2018-09-12T05:19:58.673Z,71.53
2018-09-12T05:21:51.590Z,71.53
2018-09-12T05:22:51.606Z,71.72
2018-09-12T05:24:44.528Z,71.72
2018-09-12T05:25:44.540Z,71.81
2018-09-12T05:27:37.456Z,71.81
2018-09-12T05:28:37.610Z,72.11
2018-09-12T05:30:30.403Z,71.81
2018-09-12T05:31:30.434Z,71.72
2018-09-12T05:33:23.326Z,72.01
2018-09-12T05:34:23.352Z,71.72
2018-09-12T05:36:16.322Z,72.20
2018-09-12T05:37:16.289Z,71.62
2018-09-12T05:39:09.199Z,72.01
2018-09-12T05:40:09.222Z,72.01
2018-09-12T05:42:02.153Z,71.76
2018-09-12T05:43:02.162Z,71.95
2018-09-12T05:44:55.083Z,71.76
2018-09-12T05:45:55.105Z,72.24
2018-09-12T05:47:48.030Z,71.37
2018-09-12T05:48:48.042Z,71.66
2018-09-12T05:50:40.970Z,71.85
2018-09-12T05:51:40.985Z,71.76
2018-09-12T05:53:34.122Z,72.14
2018-09-12T05:54:34.134Z,71.66
2018-09-12T05:56:27.058Z,71.76
2018-09-12T05:57:27.072Z,71.66
2018-09-12T05:59:19.994Z,71.95
2018-09-12T06:00:20.009Z,71.66
2018-09-12T06:02:13.924Z,71.66
2018-09-12T06:03:13.939Z,71.95
2018-09-12T06:05:06.856Z,71.85
2018-09-12T06:06:06.889Z,71.76
2018-09-12T06:07:59.802Z,71.95
2018-09-12T06:08:59.819Z,71.76
2018-09-12T06:10:52.751Z,71.79
2018-09-12T06:11:52.756Z,71.60
2018-09-12T06:13:45.716Z,71.31
2018-09-12T06:14:45.696Z,71.22
2018-09-12T06:16:38.624Z,70.54
2018-09-12T06:17:38.635Z,71.02
2018-09-12T06:19:31.557Z,70.67
2018-09-12T06:20:31.578Z,70.06
2018-09-12T06:22:24.502Z,70.57
2018-09-12T06:23:24.516Z,70.54
2018-09-12T06:25:17.431Z,70.64
2018-09-12T06:26:17.454Z,70.57
2018-09-12T06:28:10.372Z,69.90
2018-09-12T06:29:10.398Z,70.57
2018-09-12T06:31:03.305Z,69.64
2018-09-12T06:32:03.329Z,69.55
2018-09-12T06:33:56.260Z,68.68
2018-09-12T06:34:56.267Z,68.71
2018-09-12T06:36:49.191Z,68.77
2018-09-12T06:37:49.273Z,68.62
2018-09-12T06:39:42.149Z,68.71
2018-09-12T06:40:42.145Z,68.01
2018-09-12T06:42:35.075Z,68.10
2018-09-12T06:43:35.107Z,68.29
2018-09-12T06:45:28.001Z,68.87
2018-09-12T06:46:28.028Z,68.59
2018-09-12T06:48:20.951Z,68.68
2018-09-12T06:49:20.967Z,68.68
2018-09-12T06:51:13.883Z,69.16
2018-09-12T06:52:13.911Z,69.07
2018-09-12T06:54:06.836Z,69.35
2018-09-12T06:55:06.852Z,70.13
2018-09-12T06:56:59.770Z,69.35
2018-09-12T06:57:59.798Z,69.45
2018-09-12T06:59:52.744Z,69.55
2018-09-12T07:00:52.763Z,69.49
2018-09-12T07:02:45.687Z,68.97
2018-09-12T07:03:45.708Z,69.26
2018-09-12T07:05:38.621Z,68.52
2018-09-12T07:06:38.645Z,68.62
2018-09-12T07:08:31.576Z,69.00
2018-09-12T07:09:31.595Z,68.81
2018-09-12T07:11:24.507Z,68.71
2018-09-12T07:12:24.534Z,68.71
2018-09-12T07:14:17.544Z,68.17
2018-09-12T07:15:17.474Z,68.17
2018-09-12T07:17:10.391Z,67.04
2018-09-12T07:18:10.420Z,67.24
2018-09-12T07:20:03.341Z,66.66
2018-09-12T07:21:03.357Z,66.36
2018-09-12T07:22:56.291Z,66.30
2018-09-12T07:23:56.302Z,66.30
2018-09-12T07:25:49.222Z,65.24
2018-09-12T07:26:49.247Z,65.63
2018-09-12T07:28:42.173Z,65.34
2018-09-12T07:29:42.191Z,65.34
2018-09-12T07:31:35.114Z,65.82
2018-09-12T07:32:35.135Z,65.63
2018-09-12T07:34:28.073Z,66.11
2018-09-12T07:35:28.078Z,66.40
2018-09-12T07:37:21.006Z,66.01
2018-09-12T07:38:21.023Z,66.01
2018-09-12T07:40:13.953Z,65.43
2018-09-12T07:41:13.976Z,65.92
2018-09-12T07:43:06.894Z,66.05
2018-09-12T07:44:06.917Z,65.75
2018-09-12T07:45:59.851Z,65.37
2018-09-12T07:46:59.868Z,65.01
2018-09-12T07:48:52.833Z,64.82
2018-09-12T07:49:52.832Z,65.01
2018-09-12T07:51:45.737Z,64.43
2018-09-12T07:52:45.764Z,64.53
2018-09-12T07:54:38.727Z,65.27
2018-09-12T07:55:38.750Z,65.47
2018-09-12T07:57:31.677Z,66.05
2018-09-12T07:58:31.705Z,65.85
2018-09-12T08:00:24.696Z,64.62
2018-09-12T08:01:24.651Z,64.14
2018-09-12T08:03:17.578Z,64.24
2018-09-12T08:04:17.602Z,64.14
2018-09-12T08:06:10.530Z,64.72
2018-09-12T08:07:10.551Z,64.24
2018-09-12T08:09:03.488Z,63.76
2018-09-12T08:10:03.490Z,64.14
2018-09-12T08:11:56.411Z,63.66
2018-09-12T08:12:56.435Z,64.04
2018-09-12T08:14:49.359Z,64.14
2018-09-12T08:15:49.377Z,64.34
2018-09-12T08:17:42.295Z,64.62
2018-09-12T08:18:42.323Z,64.62
2018-09-12T08:20:35.249Z,64.24
2018-09-12T08:21:35.265Z,63.76
2018-09-12T08:23:28.182Z,63.85
2018-09-12T08:24:28.208Z,63.76
2018-09-12T08:26:21.193Z,64.34
2018-09-12T08:27:21.153Z,64.04
2018-09-12T08:29:14.096Z,64.72
2018-09-12T08:30:14.096Z,64.72
2018-09-12T08:32:07.019Z,64.34
2018-09-12T08:33:07.042Z,64.53
2018-09-12T08:34:59.989Z,64.82
2018-09-12T08:35:59.987Z,64.92
2018-09-12T08:37:52.914Z,65.69
2018-09-12T08:38:52.940Z,64.04
2018-09-12T08:40:45.864Z,64.47
2018-09-12T08:41:45.882Z,64.75
2018-09-12T08:43:38.810Z,63.92
2018-09-12T08:44:38.837Z,62.75
2018-09-12T08:46:31.764Z,62.66
2018-09-12T08:47:31.780Z,62.56
2018-09-12T08:49:24.701Z,62.17
2018-09-12T08:50:24.744Z,62.56
2018-09-12T08:52:17.655Z,62.07
2018-09-12T08:53:17.673Z,61.82
2018-09-12T08:55:10.593Z,62.01
2018-09-12T08:56:10.618Z,61.62
2018-09-12T08:58:03.547Z,61.49
2018-09-12T08:59:03.570Z,61.88
2018-09-12T09:00:56.495Z,62.66
2018-09-12T09:01:56.520Z,62.46
2018-09-12T09:03:49.431Z,63.89
2018-09-12T09:04:49.467Z,64.37
2018-09-12T09:06:42.391Z,65.01
2018-09-12T09:07:42.413Z,64.72
2018-09-12T09:09:36.335Z,65.50
2018-09-12T09:10:36.421Z,64.62
2018-09-12T09:12:29.291Z,64.82
2018-09-12T09:13:29.318Z,64.66
2018-09-12T09:15:22.232Z,63.98
2018-09-12T09:16:22.264Z,64.47
2018-09-12T09:18:15.187Z,63.62
2018-09-12T09:19:15.204Z,64.11
2018-09-12T09:21:08.158Z,63.56
2018-09-12T09:22:08.183Z,63.37
2018-09-12T09:24:01.100Z,62.43
2018-09-12T09:25:01.129Z,61.94
2018-09-12T09:26:54.062Z,60.97
2018-09-12T09:27:54.078Z,61.17
2018-09-12T09:29:46.992Z,60.78
2018-09-12T09:30:47.024Z,60.58
2018-09-12T09:32:40.007Z,61.43
2018-09-12T09:33:39.974Z,61.04
2018-09-12T09:35:33.198Z,60.94
2018-09-12T09:36:33.138Z,61.62
2018-09-12T09:38:26.058Z,61.33
2018-09-12T09:39:26.075Z,61.91
2018-09-12T09:41:18.999Z,60.55
2018-09-12T09:42:19.027Z,61.69
2018-09-12T09:44:11.981Z,62.07
2018-09-12T09:45:11.992Z,62.43
2018-09-12T09:47:04.992Z,63.31
2018-09-12T09:48:05.008Z,63.98
2018-09-12T09:49:57.858Z,64.47
2018-09-12T09:50:57.884Z,64.37
2018-09-12T09:52:50.879Z,65.01
2018-09-12T09:53:50.864Z,65.20
2018-09-12T09:55:43.785Z,66.24
2018-09-12T09:56:43.784Z,67.01
2018-09-12T09:58:36.713Z,66.88
2018-09-12T09:59:36.732Z,66.91
2018-09-12T10:01:29.650Z,67.01
2018-09-12T10:02:29.679Z,67.17
2018-09-12T10:04:22.607Z,66.98
2018-09-12T10:05:22.621Z,66.88
2018-09-12T10:07:15.544Z,66.88
2018-09-12T10:08:15.576Z,67.36
2018-09-12T10:10:08.520Z,66.98
2018-09-12T10:11:08.535Z,67.85
2018-09-12T10:13:01.448Z,66.98
2018-09-12T10:14:01.467Z,66.98
2018-09-12T10:15:54.402Z,67.46
2018-09-12T10:16:54.409Z,66.78
2018-09-12T10:18:47.338Z,67.56
2018-09-12T10:19:47.356Z,66.98
2018-09-12T10:21:40.285Z,67.56
2018-09-12T10:22:40.309Z,67.08
2018-09-12T10:24:33.244Z,67.56
2018-09-12T10:25:33.265Z,67.36
2018-09-12T10:27:26.191Z,67.66
2018-09-12T10:28:26.216Z,68.43
2018-09-12T10:30:19.169Z,68.33
2018-09-12T10:31:19.184Z,68.52
2018-09-12T10:33:12.315Z,67.01
2018-09-12T10:34:12.337Z,66.63
2018-09-12T10:36:05.267Z,66.37
2018-09-12T10:37:05.285Z,65.69
2018-09-12T10:38:58.238Z,64.62
2018-09-12T10:39:58.241Z,64.85
2018-09-12T10:41:51.161Z,64.07
2018-09-12T10:42:51.198Z,63.89
2018-09-12T10:44:44.122Z,64.14
2018-09-12T10:45:44.138Z,64.24
2018-09-12T10:47:37.060Z,64.82
2018-09-12T10:48:37.089Z,64.72
2018-09-12T10:50:30.053Z,64.62
2018-09-12T10:51:30.030Z,64.62
2018-09-12T10:53:23.030Z,64.82
2018-09-12T10:54:23.034Z,64.43
2018-09-12T10:56:15.974Z,65.05
2018-09-12T10:57:16.037Z,64.47
2018-09-12T10:59:08.981Z,63.62
2018-09-12T11:00:08.970Z,63.62
2018-09-12T11:02:01.924Z,62.56
2018-09-12T11:03:01.890Z,62.66
2018-09-12T11:04:55.338Z,61.82
2018-09-12T11:05:55.378Z,61.62
2018-09-12T11:07:48.265Z,62.27
2018-09-12T11:08:48.291Z,61.69
2018-09-12T11:10:41.287Z,62.46
2018-09-12T11:11:41.244Z,62.46
2018-09-12T11:13:34.163Z,63.43
2018-09-12T11:14:34.194Z,62.40
2018-09-12T11:16:27.187Z,60.55
2018-09-12T11:17:27.139Z,60.65
2018-09-12T11:19:20.055Z,61.11
2018-09-12T11:20:20.085Z,62.24
2018-09-12T11:22:13.030Z,64.21
2018-09-12T11:23:13.045Z,64.98
2018-09-12T11:25:05.966Z,66.46
2018-09-12T11:26:06.013Z,67.04
2018-09-12T11:27:58.924Z,67.59
2018-09-12T11:28:58.939Z,68.04
2018-09-12T11:30:51.869Z,68.71
2018-09-12T11:31:51.884Z,68.81
2018-09-12T11:33:45.799Z,68.59
2018-09-12T11:34:45.829Z,68.77
2018-09-12T11:36:38.813Z,69.07
2018-09-12T11:37:38.764Z,68.97
2018-09-12T11:39:31.685Z,68.33
2018-09-12T11:40:31.724Z,68.33
2018-09-12T11:42:24.633Z,68.04
2018-09-12T11:43:24.649Z,67.71
2018-09-12T11:45:17.596Z,68.91
2018-09-12T11:46:17.617Z,67.85
2018-09-12T11:48:11.033Z,67.94
2018-09-12T11:49:11.075Z,67.17
2018-09-12T11:51:04.038Z,66.97
2018-09-12T11:52:03.998Z,66.97
2018-09-12T11:53:56.911Z,66.88
2018-09-12T11:54:56.935Z,66.78
2018-09-12T11:56:50.026Z,67.27
2018-09-12T11:57:50.039Z,66.78
2018-09-12T11:59:42.958Z,65.75
2018-09-12T12:00:42.984Z,65.56
2018-09-12T12:02:35.915Z,65.17
2018-09-12T12:03:35.936Z,65.27
2018-09-12T12:05:28.854Z,65.08
2018-09-12T12:06:28.909Z,66.05
2018-09-12T12:08:21.808Z,65.63
2018-09-12T12:09:21.819Z,65.72
2018-09-12T12:11:14.738Z,66.20
2018-09-12T12:12:14.801Z,66.30
2018-09-12T12:14:07.689Z,66.49
2018-09-12T12:15:07.743Z,66.40
2018-09-12T12:17:00.627Z,66.88
2018-09-12T12:18:00.661Z,66.59
2018-09-12T12:19:53.578Z,66.97
2018-09-12T12:20:53.589Z,66.20
2018-09-12T12:22:46.532Z,66.01
2018-09-12T12:23:46.549Z,66.01
2018-09-12T12:25:39.467Z,66.11
2018-09-12T12:26:39.516Z,66.30
2018-09-12T12:28:32.450Z,66.30
2018-09-12T12:29:32.463Z,66.30
2018-09-12T12:31:25.384Z,66.20
2018-09-12T12:32:25.438Z,66.40
2018-09-12T12:34:18.335Z,66.01
2018-09-12T12:35:18.391Z,65.53
2018-09-12T12:37:11.304Z,65.91
2018-09-12T12:38:11.317Z,65.30
2018-09-12T12:40:04.229Z,65.53
2018-09-12T12:41:04.260Z,65.05
2018-09-12T12:42:57.192Z,65.24
2018-09-12T12:43:57.202Z,64.95
2018-09-12T12:45:50.195Z,65.72
2018-09-12T12:46:50.202Z,64.34
2018-09-12T12:48:43.121Z,64.72
2018-09-12T12:49:43.142Z,64.24
2018-09-12T12:51:36.076Z,64.53
2018-09-12T12:52:36.117Z,64.34
2018-09-12T12:54:29.016Z,65.59
2018-09-12T12:55:29.037Z,65.11
2018-09-12T12:57:21.953Z,65.59
2018-09-12T12:58:21.982Z,65.56
2018-09-12T13:00:14.907Z,65.17
2018-09-12T13:01:14.956Z,65.66
2018-09-12T13:03:07.845Z,65.81
2018-09-12T13:04:07.877Z,66.88
2018-09-12T13:06:00.780Z,67.81
2018-09-12T13:07:00.806Z,68.19
2018-09-12T13:08:53.800Z,68.48
2018-09-12T13:09:53.774Z,69.12
2018-09-12T13:11:46.692Z,69.41
2018-09-12T13:12:46.686Z,69.60
2018-09-12T13:14:39.662Z,69.79
2018-09-12T13:15:39.622Z,68.93
2018-09-12T13:17:32.541Z,68.44
2018-09-12T13:18:32.564Z,68.51
2018-09-12T13:20:25.494Z,68.90
2018-09-12T13:21:25.584Z,69.28
2018-09-12T13:23:18.424Z,69.85
2018-09-12T13:24:18.452Z,70.11
2018-09-12T13:26:11.436Z,70.68
2018-09-12T13:27:11.446Z,70.59
2018-09-12T13:29:04.313Z,70.40
2018-09-12T13:30:04.363Z,70.30
2018-09-12T13:31:57.243Z,71.08
2018-09-12T13:32:57.277Z,70.59
2018-09-12T13:34:50.188Z,71.55
2018-09-12T13:35:50.199Z,71.55
2018-09-12T13:37:43.114Z,71.23
2018-09-12T13:38:43.135Z,71.65
2018-09-12T13:40:36.060Z,71.75
2018-09-12T13:41:36.072Z,71.65
2018-09-12T13:43:28.993Z,71.26
2018-09-12T13:44:29.078Z,71.65
2018-09-12T13:46:21.932Z,71.75
2018-09-12T13:47:21.944Z,71.08
2018-09-12T13:49:14.874Z,70.40
2018-09-12T13:50:14.883Z,69.85
2018-09-12T13:52:07.805Z,69.28
2018-09-12T13:53:07.820Z,69.57
2018-09-12T13:55:00.739Z,70.05
2018-09-12T13:56:00.753Z,69.76
2018-09-12T13:57:53.677Z,70.43
2018-09-12T13:58:53.690Z,69.95
2018-09-12T14:00:46.611Z,70.21
2018-09-12T14:01:46.627Z,70.40
2018-09-12T14:03:39.540Z,70.30
2018-09-12T14:04:39.565Z,70.78
2018-09-12T14:06:32.489Z,71.11
2018-09-12T14:07:32.494Z,70.53
2018-09-12T14:09:25.428Z,70.88
2018-09-12T14:10:25.448Z,71.17
2018-09-12T14:12:18.374Z,71.65
2018-09-12T14:13:18.384Z,71.55
2018-09-12T14:15:11.314Z,72.23
2018-09-12T14:16:11.324Z,71.84
2018-09-12T14:18:04.239Z,71.65
2018-09-12T14:19:04.263Z,72.03
2018-09-12T14:20:57.207Z,71.84
2018-09-12T14:21:57.866Z,71.65
2018-09-12T14:23:50.112Z,72.52
2018-09-12T14:24:50.144Z,72.52
2018-09-12T14:26:43.070Z,72.80
2018-09-12T14:27:43.808Z,73.19
2018-09-12T14:29:37.453Z,73.19
2018-09-12T14:30:37.481Z,73.19
2018-09-12T14:32:30.659Z,73.77
2018-09-12T14:33:32.810Z,73.19
2018-09-12T14:35:23.534Z,74.05
2018-09-12T14:36:23.557Z,74.02
2018-09-12T14:38:16.478Z,74.54
2018-09-12T14:39:16.531Z,74.40
2018-09-12T14:41:09.425Z,74.60
2018-09-12T14:42:09.524Z,74.50
2018-09-12T14:44:02.357Z,74.63
2018-09-12T14:45:02.407Z,74.44
2018-09-12T14:46:55.359Z,74.50
2018-09-12T14:47:55.345Z,74.79
2018-09-12T14:49:48.270Z,74.88
2018-09-12T14:50:48.332Z,75.27
2018-09-12T14:52:41.209Z,75.56
2018-09-12T14:53:41.214Z,76.32
2018-09-12T14:55:34.123Z,76.32
2018-09-12T14:56:34.146Z,77.09
2018-09-12T14:58:27.065Z,77.86
2018-09-12T14:59:27.078Z,77.92
2018-09-12T15:01:20.010Z,78.40
2018-09-12T15:02:20.012Z,79.07
2018-09-12T15:04:12.940Z,79.07
2018-09-12T15:05:12.960Z,79.27
2018-09-12T15:07:05.882Z,79.36
2018-09-12T15:08:06.425Z,79.46
2018-09-12T15:09:58.806Z,80.51
2018-09-12T15:10:58.827Z,80.51
2018-09-12T15:12:51.744Z,81.38
2018-09-12T15:13:51.757Z,81.86
2018-09-12T15:15:44.688Z,82.05
2018-09-12T15:16:44.711Z,81.57
2018-09-12T15:18:37.632Z,81.96
2018-09-12T15:19:37.645Z,81.63
2018-09-12T15:21:30.560Z,81.67
2018-09-12T15:22:30.581Z,81.86
2018-09-12T15:24:23.502Z,82.15
2018-09-12T15:25:23.516Z,81.96
2018-09-12T15:27:16.434Z,81.67
2018-09-12T15:28:16.449Z,81.86
2018-09-12T15:30:09.421Z,81.86
2018-09-12T15:31:09.381Z,82.63
2018-09-12T15:33:02.498Z,83.01
2018-09-12T15:34:02.509Z,83.01
2018-09-12T15:35:55.430Z,81.67
2018-09-12T15:36:55.452Z,81.86
2018-09-12T15:38:48.450Z,81.28
2018-09-12T15:39:48.386Z,81.86
2018-09-12T15:41:41.299Z,82.05
2018-09-12T15:42:41.336Z,81.76
2018-09-12T15:44:34.232Z,81.61
2018-09-12T15:45:34.247Z,81.61
2018-09-12T15:47:27.174Z,81.71
2018-09-12T15:48:27.182Z,80.88
2018-09-12T15:50:20.102Z,80.88
2018-09-12T15:51:20.121Z,79.92
2018-09-12T15:53:13.040Z,79.44
2018-09-12T15:54:13.056Z,79.53
2018-09-12T15:56:05.966Z,78.77
2018-09-12T15:57:05.999Z,78.77
2018-09-12T15:58:58.928Z,79.25
2018-09-12T15:59:58.938Z,79.05
2018-09-12T16:01:51.948Z,79.88
2018-09-12T16:02:52.332Z,79.53
2018-09-12T16:04:46.233Z,78.38
2018-09-12T16:05:46.257Z,79.05
2018-09-12T16:07:39.194Z,78.19
2018-09-12T16:08:39.194Z,78.38
2018-09-12T16:10:32.138Z,78.19
2018-09-12T16:11:32.152Z,78.00
2018-09-12T16:13:25.336Z,78.28
2018-09-12T16:14:25.380Z,78.00
2018-09-12T16:16:18.020Z,76.94
2018-09-12T16:17:18.130Z,76.56
2018-09-12T16:19:11.070Z,77.48
2018-09-12T16:20:11.053Z,77.09
2018-09-12T16:22:03.993Z,77.76
2018-09-12T16:23:04.027Z,77.19
2018-09-12T16:24:56.876Z,77.76
2018-09-12T16:25:56.894Z,77.76
2018-09-12T16:27:49.801Z,77.38
2018-09-12T16:28:49.823Z,77.38
2018-09-12T16:30:42.740Z,77.76
2018-09-12T16:31:42.759Z,77.44
2018-09-12T16:33:35.696Z,78.06
2018-09-12T16:34:35.747Z,77.48
2018-09-12T16:36:28.594Z,77.58
2018-09-12T16:37:28.624Z,77.86
2018-09-12T16:39:21.547Z,77.38
2018-09-12T16:40:21.641Z,76.81
2018-09-12T16:42:14.494Z,77.19
2018-09-12T16:43:14.500Z,76.96
2018-09-12T16:45:07.411Z,77.29
2018-09-12T16:46:07.427Z,77.48
2018-09-12T16:48:00.518Z,77.44
2018-09-12T16:49:00.363Z,77.67
2018-09-12T16:50:53.285Z,77.48
2018-09-12T16:51:53.298Z,77.67
2018-09-12T16:53:46.211Z,77.76
2018-09-12T16:54:46.235Z,77.34
2018-09-12T16:56:39.186Z,77.48
2018-09-12T16:57:39.173Z,77.86
2018-09-12T16:59:32.095Z,77.73
2018-09-12T17:00:32.107Z,77.76
2018-09-12T17:02:25.011Z,78.02
2018-09-12T17:03:25.031Z,77.63
2018-09-12T17:05:17.978Z,77.83
2018-09-12T17:06:17.996Z,78.15
2018-09-12T17:08:10.906Z,78.02
2018-09-12T17:09:10.928Z,78.02
2018-09-12T17:11:03.847Z,77.92
2018-09-12T17:12:03.860Z,78.02
2018-09-12T17:13:56.773Z,78.21
2018-09-12T17:14:56.794Z,78.06
2018-09-12T17:16:49.718Z,78.25
2018-09-12T17:17:49.726Z,77.44
2018-09-12T17:19:42.637Z,77.44
2018-09-12T17:20:42.657Z,78.02
2018-09-12T17:22:35.606Z,78.98
2018-09-12T17:23:35.621Z,78.50
2018-09-12T17:25:28.551Z,78.02
2018-09-12T17:26:28.554Z,77.63
2018-09-12T17:28:21.469Z,78.59
2018-09-12T17:29:21.497Z,78.59
2018-09-12T17:31:14.629Z,78.69
2018-09-12T17:32:14.702Z,78.69
2018-09-12T17:34:07.564Z,78.40
2018-09-12T17:35:07.585Z,78.78
2018-09-12T17:37:00.707Z,78.50
2018-09-12T17:38:00.717Z,78.59
2018-09-12T17:39:53.631Z,79.17
2018-09-12T17:40:53.652Z,79.36
2018-09-12T17:42:46.562Z,79.36
2018-09-12T17:43:46.576Z,79.46
2018-09-12T17:45:39.486Z,79.55
2018-09-12T17:46:39.512Z,79.65
2018-09-12T17:48:32.428Z,79.65
2018-09-12T17:49:32.439Z,79.17
2018-09-12T17:51:25.391Z,79.36
2018-09-12T17:52:25.377Z,79.36
2018-09-12T17:54:18.293Z,79.55
2018-09-12T17:55:18.309Z,79.65
2018-09-12T17:57:11.237Z,79.07
2018-09-12T17:58:11.241Z,80.42
2018-09-12T18:00:04.205Z,80.61
2018-09-12T18:01:04.228Z,80.22
2018-09-12T18:02:57.147Z,80.61
2018-09-12T18:03:57.162Z,81.28
2018-09-12T18:05:50.198Z,81.43
2018-09-12T18:06:50.098Z,81.24
2018-09-12T18:08:43.010Z,81.72
2018-09-12T18:09:43.030Z,81.63
2018-09-12T18:11:35.940Z,81.92
2018-09-12T18:12:35.957Z,81.43
2018-09-12T18:14:29.421Z,81.38
2018-09-12T18:15:28.887Z,80.99
2018-09-12T18:17:21.807Z,81.28
2018-09-12T18:18:21.826Z,81.28
2018-09-12T18:20:14.747Z,81.09
2018-09-12T18:21:14.756Z,81.48
2018-09-12T18:23:08.670Z,80.71
2018-09-12T18:24:08.739Z,81.09
2018-09-12T18:26:01.598Z,80.71
2018-09-12T18:27:01.615Z,80.71
2018-09-12T18:28:54.545Z,80.90
2018-09-12T18:29:54.559Z,81.19
2018-09-12T18:31:47.467Z,81.19
2018-09-12T18:32:47.490Z,81.15
2018-09-12T18:34:40.407Z,81.19